OSOK1: Oswego hwy 160

                                SHEF ID:       OSOK1     Oswego hwy 160
STATION TYPE:

PRECIP STAGE RIV-FLOW VOLTAGE BAT-LOAD
in ft cfs volt volt
Ccp-Rev Ccp-Rev Ccp-Rev Ccp-Rev Ccp-Rev
(America/Chicago)
05/04 00:00 0.00 14.34 5580 12.77 12.51
05/04 01:00 0.00 14.29 5512 12.76 12.49
05/04 02:00 0.00 14.24 5443 12.73 12.47
05/04 03:00 0.00 14.21 5403 12.71 12.44
05/04 04:00 0.00 14.19 5376 12.70 12.44
05/04 05:00 0.00 14.16 5335 12.68 12.42
05/04 06:00 0.00 14.14 5308 12.67 12.40
05/04 07:00 0.00 14.11 5268 12.75 12.42
05/04 08:00 0.00 14.09 5241 14.03 13.27
05/04 09:00 0.00 14.05 5187 13.78 13.29
05/04 10:00 0.00 14.05 5187 13.22 12.99
05/04 11:00 0.00 14.03 5160 13.20 12.93
05/04 12:00 0.00 14.00 5120 13.19 12.86
05/04 13:00 0.00 14.02 5147 13.26 12.88
05/04 14:00 0.00 14.00 5120 13.23 12.90
05/04 15:00 0.00 13.98 5094 13.17 12.87
05/04 16:00 0.00 13.97 5081 13.10 12.83
05/04 17:00 0.00 13.98 5094 13.13 12.80
05/04 18:00 0.00 13.98 5094 13.26 12.77
05/04 19:00 0.00 13.97 5081 13.41 12.86
05/04 20:00 0.00 13.96 5067 13.05 12.84
05/04 21:00 0.00 13.97 5081 12.87 12.63
05/04 22:00 0.00 13.95 5054 12.81 12.55
05/04 23:00 0.00 13.96 5067 12.79 12.52
Data processed at Tue 05May2026 04:50 GMT

NOTICE: If you are parsing this page

Please convert to using our Data API. Starting early 2026 we will be migrating to: https://water.usace.army.mil with modern pages rendered in JavaScript. When this migration completes you will no longer be able to scrape this page! CWMSDataAPI (CDA)

Timeseries IDs (TSIDs)

TSIDs used from left to right in the data table
OSWN.Precip-Inc.Total.1Hour.1Hour.Ccp-Rev
OSWN.Stage.Inst.1Hour.0.Ccp-Rev
OSWN.Flow.Inst.1Hour.0.Ccp-Rev
OSWN.Volt-Battery.Inst.1Hour.0.Ccp-Rev
OSWN.Volt-Battery Load.Inst.1Hour.0.Ccp-Rev

                            

All information presented herein is the property of the government of the United States of America and may be revised or deleted at any time without prior notice. Dissemination of this information without the expressed written consent of the Public Affairs Office, Tulsa District U.S. Army Corps of Engineers is strictly prohibited. These data are gathered electronically and, as presented, have NOT undergone any form of quality control. These data are NOT guaranteed to be valid or correct.